sensor_id;sensor_type;location;lat;lon;timestamp;pressure;altitude;pressure_sealevel;temperature;humidity
56630;BME280;42502;40.732;-74.254;2023-04-25T00:00:04;100733.09;;;24.89;31.50
56630;BME280;42502;40.732;-74.254;2023-04-25T00:02:10;100739.94;;;24.88;31.42
56630;BME280;42502;40.732;-74.254;2023-04-25T00:04:10;100755.72;;;24.92;31.13
56630;BME280;42502;40.732;-74.254;2023-04-25T00:06:12;100751.25;;;24.91;31.33
56630;BME280;42502;40.732;-74.254;2023-04-25T00:08:13;100766.22;;;24.92;31.45
56630;BME280;42502;40.732;-74.254;2023-04-25T00:10:14;100766.59;;;24.90;31.12
56630;BME280;42502;40.732;-74.254;2023-04-25T00:12:18;100758.91;;;24.87;31.48
56630;BME280;42502;40.732;-74.254;2023-04-25T00:14:19;100767.78;;;24.89;31.21
56630;BME280;42502;40.732;-74.254;2023-04-25T00:16:20;100776.66;;;24.88;31.18
56630;BME280;42502;40.732;-74.254;2023-04-25T00:18:21;100767.38;;;24.87;31.21
56630;BME280;42502;40.732;-74.254;2023-04-25T00:20:22;100750.59;;;24.71;31.32
56630;BME280;42502;40.732;-74.254;2023-04-25T00:22:23;100779.88;;;24.86;30.91
56630;BME280;42502;40.732;-74.254;2023-04-25T00:24:24;100778.22;;;24.85;31.08
56630;BME280;42502;40.732;-74.254;2023-04-25T00:26:25;100778.59;;;24.83;31.06
56630;BME280;42502;40.732;-74.254;2023-04-25T00:28:26;100785.09;;;24.84;31.15
56630;BME280;42502;40.732;-74.254;2023-04-25T00:30:27;100794.75;;;24.83;31.05
56630;BME280;42502;40.732;-74.254;2023-04-25T00:32:28;100789.50;;;24.81;30.92
56630;BME280;42502;40.732;-74.254;2023-04-25T00:34:29;100789.50;;;24.81;31.12
56630;BME280;42502;40.732;-74.254;2023-04-25T00:36:29;100793.50;;;24.80;30.96
56630;BME280;42502;40.732;-74.254;2023-04-25T00:38:31;100806.81;;;24.80;31.18
56630;BME280;42502;40.732;-74.254;2023-04-25T00:40:37;100717.03;;;24.16;30.92
56630;BME280;42502;40.732;-74.254;2023-04-25T00:42:42;100809.19;;;24.78;31.02
56630;BME280;42502;40.732;-74.254;2023-04-25T00:44:43;100815.59;;;24.75;31.12
56630;BME280;42502;40.732;-74.254;2023-04-25T00:46:47;100822.50;;;24.77;30.85
56630;BME280;42502;40.732;-74.254;2023-04-25T00:48:49;100816.44;;;24.75;31.17
56630;BME280;42502;40.732;-74.254;2023-04-25T00:50:55;100821.25;;;24.75;31.11
56630;BME280;42502;40.732;-74.254;2023-04-25T00:52:57;100820.41;;;24.71;30.98
56630;BME280;42502;40.732;-74.254;2023-04-25T00:54:59;100815.97;;;24.73;31.14
56630;BME280;42502;40.732;-74.254;2023-04-25T00:57:02;100820.03;;;24.72;31.11
56630;BME280;42502;40.732;-74.254;2023-04-25T00:59:03;100833.78;;;24.74;31.12
56630;BME280;42502;40.732;-74.254;2023-04-25T01:01:05;100834.94;;;24.73;31.11
56630;BME280;42502;40.732;-74.254;2023-04-25T01:03:07;100832.50;;;24.71;30.93
56630;BME280;42502;40.732;-74.254;2023-04-25T01:05:08;100831.69;;;24.71;31.01
56630;BME280;42502;40.732;-74.254;2023-04-25T01:07:09;100824.41;;;24.70;30.83
56630;BME280;42502;40.732;-74.254;2023-04-25T01:09:11;100832.09;;;24.69;30.90
56630;BME280;42502;40.732;-74.254;2023-04-25T01:11:13;100830.44;;;24.68;31.11
56630;BME280;42502;40.732;-74.254;2023-04-25T01:13:14;100832.47;;;24.68;31.07
56630;BME280;42502;40.732;-74.254;2023-04-25T01:15:15;100830.41;;;24.64;30.81
56630;BME280;42502;40.732;-74.254;2023-04-25T01:17:17;100836.47;;;24.67;30.78
56630;BME280;42502;40.732;-74.254;2023-04-25T01:19:18;100846.13;;;24.65;30.78
56630;BME280;42502;40.732;-74.254;2023-04-25T01:21:20;100839.69;;;24.65;30.80
56630;BME280;42502;40.732;-74.254;2023-04-25T01:23:21;100845.31;;;24.65;30.79
56630;BME280;42502;40.732;-74.254;2023-04-25T01:25:23;100840.00;;;24.60;30.83
56630;BME280;42502;40.732;-74.254;2023-04-25T01:27:24;100841.25;;;24.62;30.55
56630;BME280;42502;40.732;-74.254;2023-04-25T01:29:27;100851.72;;;24.62;31.02
56630;BME280;42502;40.732;-74.254;2023-04-25T01:31:28;100838.38;;;24.59;30.96
56630;BME280;42502;40.732;-74.254;2023-04-25T01:33:29;100844.44;;;24.61;30.98
56630;BME280;42502;40.732;-74.254;2023-04-25T01:35:30;100842.00;;;24.59;31.06
56630;BME280;42502;40.732;-74.254;2023-04-25T01:37:32;100847.66;;;24.59;31.30
56630;BME280;42502;40.732;-74.254;2023-04-25T01:39:33;100856.13;;;24.59;31.33
56630;BME280;42502;40.732;-74.254;2023-04-25T01:41:33;100850.84;;;24.58;31.30
56630;BME280;42502;40.732;-74.254;2023-04-25T01:43:37;100833.28;;;24.45;31.25
56630;BME280;42502;40.732;-74.254;2023-04-25T01:45:38;100864.13;;;24.57;31.10
56630;BME280;42502;40.732;-74.254;2023-04-25T01:47:42;100849.59;;;24.55;30.89
56630;BME280;42502;40.732;-74.254;2023-04-25T01:49:44;100861.31;;;24.57;31.10
56630;BME280;42502;40.732;-74.254;2023-04-25T01:51:44;100858.88;;;24.56;31.00
56630;BME280;42502;40.732;-74.254;2023-04-25T01:53:46;100864.13;;;24.57;31.18
56630;BME280;42502;40.732;-74.254;2023-04-25T01:55:46;100860.03;;;24.55;31.23
56630;BME280;42502;40.732;-74.254;2023-04-25T01:57:47;100865.31;;;24.56;31.18
56630;BME280;42502;40.732;-74.254;2023-04-25T01:59:49;100868.16;;;24.56;31.14
56630;BME280;42502;40.732;-74.254;2023-04-25T02:01:50;100862.06;;;24.54;31.32
56630;BME280;42502;40.732;-74.254;2023-04-25T02:03:51;100862.06;;;24.54;31.13
56630;BME280;42502;40.732;-74.254;2023-04-25T02:05:52;100868.16;;;24.56;31.23
56630;BME280;42502;40.732;-74.254;2023-04-25T02:07:53;100865.69;;;24.55;31.20
56630;BME280;42502;40.732;-74.254;2023-04-25T02:09:54;100861.94;;;24.47;31.26
56630;BME280;42502;40.732;-74.254;2023-04-25T02:11:54;100874.50;;;24.50;31.30
56630;BME280;42502;40.732;-74.254;2023-04-25T02:13:55;100873.75;;;24.53;31.35
56630;BME280;42502;40.732;-74.254;2023-04-25T02:15:59;100876.56;;;24.53;31.00
56630;BME280;42502;40.732;-74.254;2023-04-25T02:18:00;100883.84;;;24.54;30.86
56630;BME280;42502;40.732;-74.254;2023-04-25T02:20:01;100885.47;;;24.55;31.20
56630;BME280;42502;40.732;-74.254;2023-04-25T02:22:02;100892.31;;;24.54;30.97
56630;BME280;42502;40.732;-74.254;2023-04-25T02:24:06;100899.97;;;24.53;31.06
56630;BME280;42502;40.732;-74.254;2023-04-25T02:26:06;100895.53;;;24.52;31.11
56630;BME280;42502;40.732;-74.254;2023-04-25T02:28:07;100892.69;;;24.52;30.94
56630;BME280;42502;40.732;-74.254;2023-04-25T02:30:09;100890.25;;;24.51;31.08
56630;BME280;42502;40.732;-74.254;2023-04-25T02:32:12;100882.59;;;24.51;31.01
56630;BME280;42502;40.732;-74.254;2023-04-25T02:34:13;100885.78;;;24.50;31.12
56630;BME280;42502;40.732;-74.254;2023-04-25T02:36:14;100894.25;;;24.50;31.05
56630;BME280;42502;40.732;-74.254;2023-04-25T02:38:15;100889.00;;;24.48;30.98
56630;BME280;42502;40.732;-74.254;2023-04-25T02:40:18;100892.56;;;24.45;31.28
56630;BME280;42502;40.732;-74.254;2023-04-25T02:42:20;100893.31;;;24.42;30.88
56630;BME280;42502;40.732;-74.254;2023-04-25T02:44:20;100893.75;;;24.44;31.05
56630;BME280;42502;40.732;-74.254;2023-04-25T02:46:21;100897.38;;;24.44;30.89
56630;BME280;42502;40.732;-74.254;2023-04-25T02:48:22;100894.56;;;24.44;31.08
56630;BME280;42502;40.732;-74.254;2023-04-25T02:50:23;100907.13;;;24.47;31.00
56630;BME280;42502;40.732;-74.254;2023-04-25T02:52:24;100905.47;;;24.46;31.06
56630;BME280;42502;40.732;-74.254;2023-04-25T02:54:28;100904.66;;;24.45;30.88
56630;BME280;42502;40.732;-74.254;2023-04-25T02:56:28;100895.38;;;24.45;30.87
56630;BME280;42502;40.732;-74.254;2023-04-25T02:58:29;100902.22;;;24.44;30.84
56630;BME280;42502;40.732;-74.254;2023-04-25T03:00:30;100906.69;;;24.45;31.06
56630;BME280;42502;40.732;-74.254;2023-04-25T03:02:31;100902.22;;;24.44;30.94
56630;BME280;42502;40.732;-74.254;2023-04-25T03:04:32;100906.59;;;24.41;31.03
56630;BME280;42502;40.732;-74.254;2023-04-25T03:06:33;100916.34;;;24.44;30.94
56630;BME280;42502;40.732;-74.254;2023-04-25T03:08:34;100911.88;;;24.43;31.11
56630;BME280;42502;40.732;-74.254;2023-04-25T03:10:35;100915.06;;;24.41;31.00
56630;BME280;42502;40.732;-74.254;2023-04-25T03:12:36;100912.56;;;24.36;30.85
56630;BME280;42502;40.732;-74.254;2023-04-25T03:14:37;100919.09;;;24.40;30.95
56630;BME280;42502;40.732;-74.254;2023-04-25T03:16:38;100921.94;;;24.40;30.82
56630;BME280;42502;40.732;-74.254;2023-04-25T03:18:39;100913.84;;;24.39;31.04
56630;BME280;42502;40.732;-74.254;2023-04-25T03:20:43;100906.94;;;24.36;30.97
56630;BME280;42502;40.732;-74.254;2023-04-25T03:22:44;100910.94;;;24.35;30.60
56630;BME280;42502;40.732;-74.254;2023-04-25T03:24:45;100926.31;;;24.38;30.86
56630;BME280;42502;40.732;-74.254;2023-04-25T03:26:46;100917.69;;;24.30;30.50
56630;BME280;42502;40.732;-74.254;2023-04-25T03:28:47;100929.09;;;24.34;30.95
56630;BME280;42502;40.732;-74.254;2023-04-25T03:30:47;100930.25;;;24.33;30.65
56630;BME280;42502;40.732;-74.254;2023-04-25T03:32:48;100931.44;;;24.32;30.88
56630;BME280;42502;40.732;-74.254;2023-04-25T03:34:49;100931.81;;;24.30;30.82
56630;BME280;42502;40.732;-74.254;2023-04-25T03:36:50;100931.81;;;24.30;30.67
56630;BME280;42502;40.732;-74.254;2023-04-25T03:38:51;100937.84;;;24.29;30.59
56630;BME280;42502;40.732;-74.254;2023-04-25T03:40:52;100937.47;;;24.30;30.67
56630;BME280;42502;40.732;-74.254;2023-04-25T03:42:53;100938.69;;;24.29;30.60
56630;BME280;42502;40.732;-74.254;2023-04-25T03:44:54;100941.41;;;24.26;30.61
56630;BME280;42502;40.732;-74.254;2023-04-25T03:46:55;100947.44;;;24.24;30.55
56630;BME280;42502;40.732;-74.254;2023-04-25T03:48:55;100950.72;;;24.26;30.74
56630;BME280;42502;40.732;-74.254;2023-04-25T03:50:56;100952.69;;;24.26;30.62
56630;BME280;42502;40.732;-74.254;2023-04-25T03:52:57;100954.28;;;24.23;30.62
56630;BME280;42502;40.732;-74.254;2023-04-25T03:54:58;100949.81;;;24.22;30.64
56630;BME280;42502;40.732;-74.254;2023-04-25T03:56:59;100957.47;;;24.22;30.55
56630;BME280;42502;40.732;-74.254;2023-04-25T03:59:00;100957.84;;;24.20;30.50
56630;BME280;42502;40.732;-74.254;2023-04-25T04:01:01;100951.75;;;24.18;30.46
56630;BME280;42502;40.732;-74.254;2023-04-25T04:03:10;100954.19;;;24.20;30.49
56630;BME280;42502;40.732;-74.254;2023-04-25T04:05:11;100957.41;;;24.18;30.36
56630;BME280;42502;40.732;-74.254;2023-04-25T04:07:12;100957.41;;;24.18;30.49
56630;BME280;42502;40.732;-74.254;2023-04-25T04:09:13;100958.56;;;24.17;30.37
56630;BME280;42502;40.732;-74.254;2023-04-25T04:11:14;100957.72;;;24.13;30.39
56630;BME280;42502;40.732;-74.254;2023-04-25T04:13:15;100960.16;;;24.15;30.51
56630;BME280;42502;40.732;-74.254;2023-04-25T04:15:16;100964.97;;;24.14;30.30
56630;BME280;42502;40.732;-74.254;2023-04-25T04:17:19;100973.44;;;24.14;30.55
56630;BME280;42502;40.732;-74.254;2023-04-25T04:19:20;100972.19;;;24.11;30.34
56630;BME280;42502;40.732;-74.254;2023-04-25T04:21:21;100970.91;;;24.09;30.42
56630;BME280;42502;40.732;-74.254;2023-04-25T04:23:22;100975.75;;;24.08;30.36
56630;BME280;42502;40.732;-74.254;2023-04-25T04:25:23;100983.00;;;24.09;30.24
56630;BME280;42502;40.732;-74.254;2023-04-25T04:27:24;100979.75;;;24.07;30.29
56630;BME280;42502;40.732;-74.254;2023-04-25T04:29:25;100973.31;;;24.07;30.54
56630;BME280;42502;40.732;-74.254;2023-04-25T04:31:26;100982.16;;;24.05;30.31
56630;BME280;42502;40.732;-74.254;2023-04-25T04:33:27;100985.34;;;24.04;30.54
56630;BME280;42502;40.732;-74.254;2023-04-25T04:35:28;100985.34;;;24.04;30.25
56630;BME280;42502;40.732;-74.254;2023-04-25T04:37:29;100981.69;;;24.03;30.43
56630;BME280;42502;40.732;-74.254;2023-04-25T04:39:30;100992.53;;;24.01;30.22
56630;BME280;42502;40.732;-74.254;2023-04-25T04:41:31;100995.34;;;24.01;30.22
56630;BME280;42502;40.732;-74.254;2023-04-25T04:43:32;100998.53;;;24.00;30.11
56630;BME280;42502;40.732;-74.254;2023-04-25T04:45:33;100994.06;;;23.99;30.25
56630;BME280;42502;40.732;-74.254;2023-04-25T04:47:34;101004.56;;;23.98;30.20
56630;BME280;42502;40.732;-74.254;2023-04-25T04:49:37;100999.28;;;23.97;30.26
56630;BME280;42502;40.732;-74.254;2023-04-25T04:51:45;100994.81;;;23.95;30.44
56630;BME280;42502;40.732;-74.254;2023-04-25T04:53:45;100991.13;;;23.91;30.21
56630;BME280;42502;40.732;-74.254;2023-04-25T04:55:46;101000.03;;;23.93;30.28
56630;BME280;42502;40.732;-74.254;2023-04-25T04:57:47;100990.75;;;23.93;30.24
56630;BME280;42502;40.732;-74.254;2023-04-25T04:59:48;101000.41;;;23.92;30.26
56630;BME280;42502;40.732;-74.254;2023-04-25T05:01:50;100996.78;;;23.91;30.19
56630;BME280;42502;40.732;-74.254;2023-04-25T05:03:51;100994.31;;;23.90;30.37
56630;BME280;42502;40.732;-74.254;2023-04-25T05:05:52;100991.03;;;23.88;30.29
56630;BME280;42502;40.732;-74.254;2023-04-25T05:07:53;100992.25;;;23.87;30.31
56630;BME280;42502;40.732;-74.254;2023-04-25T05:09:54;100997.03;;;23.86;30.16
56630;BME280;42502;40.732;-74.254;2023-04-25T05:11:55;101003.88;;;23.85;30.15
56630;BME280;42502;40.732;-74.254;2023-04-25T05:13:55;100999.41;;;23.84;30.30
56630;BME280;42502;40.732;-74.254;2023-04-25T05:15:56;101000.56;;;23.83;30.21
56630;BME280;42502;40.732;-74.254;2023-04-25T05:17:57;101000.56;;;23.83;30.54
56630;BME280;42502;40.732;-74.254;2023-04-25T05:19:58;100999.28;;;23.81;30.34
56630;BME280;42502;40.732;-74.254;2023-04-25T05:21:59;100999.28;;;23.81;30.10
56630;BME280;42502;40.732;-74.254;2023-04-25T05:24:00;100994.88;;;23.80;30.20
56630;BME280;42502;40.732;-74.254;2023-04-25T05:26:01;101002.41;;;23.75;29.98
56630;BME280;42502;40.732;-74.254;2023-04-25T05:28:02;101004.88;;;23.77;30.19
56630;BME280;42502;40.732;-74.254;2023-04-25T05:30:04;101010.88;;;23.75;30.09
56630;BME280;42502;40.732;-74.254;2023-04-25T05:32:08;101001.97;;;23.73;30.18
56630;BME280;42502;40.732;-74.254;2023-04-25T05:34:09;100998.31;;;23.73;30.09
56630;BME280;42502;40.732;-74.254;2023-04-25T05:36:10;101003.97;;;23.73;30.14
56630;BME280;42502;40.732;-74.254;2023-04-25T05:38:11;100989.41;;;23.71;30.14
56630;BME280;42502;40.732;-74.254;2023-04-25T05:40:12;100997.06;;;23.70;30.13
56630;BME280;42502;40.732;-74.254;2023-04-25T05:42:13;100987.78;;;23.70;30.18
56630;BME280;42502;40.732;-74.254;2023-04-25T05:44:16;100989.78;;;23.69;30.14
56630;BME280;42502;40.732;-74.254;2023-04-25T05:46:17;100990.16;;;23.68;30.15
56630;BME280;42502;40.732;-74.254;2023-04-25T05:48:20;100987.72;;;23.66;30.18
56630;BME280;42502;40.732;-74.254;2023-04-25T05:50:21;100975.63;;;23.66;30.23
56630;BME280;42502;40.732;-74.254;2023-04-25T05:52:22;100967.78;;;23.59;29.99
56630;BME280;42502;40.732;-74.254;2023-04-25T05:54:23;100967.53;;;23.64;30.04
56630;BME280;42502;40.732;-74.254;2023-04-25T05:56:24;100982.00;;;23.63;29.81
56630;BME280;42502;40.732;-74.254;2023-04-25T05:58:25;100974.72;;;23.62;30.00
56630;BME280;42502;40.732;-74.254;2023-04-25T06:00:26;100977.91;;;23.60;30.08
56630;BME280;42502;40.732;-74.254;2023-04-25T06:02:29;100975.44;;;23.58;30.15
56630;BME280;42502;40.732;-74.254;2023-04-25T06:04:30;100977.47;;;23.58;30.15
56630;BME280;42502;40.732;-74.254;2023-04-25T06:06:31;100971.72;;;23.54;30.07
56630;BME280;42502;40.732;-74.254;2023-04-25T06:08:32;100964.44;;;23.53;30.08
56630;BME280;42502;40.732;-74.254;2023-04-25T06:10:33;100960.75;;;23.49;30.14
56630;BME280;42502;40.732;-74.254;2023-04-25T06:12:34;100964.81;;;23.52;30.06
56630;BME280;42502;40.732;-74.254;2023-04-25T06:14:35;100968.09;;;23.54;29.98
56630;BME280;42502;40.732;-74.254;2023-04-25T06:16:35;100972.47;;;23.51;30.04
56630;BME280;42502;40.732;-74.254;2023-04-25T06:18:36;100969.63;;;23.51;30.15
56630;BME280;42502;40.732;-74.254;2023-04-25T06:20:37;100968.00;;;23.50;29.89
56630;BME280;42502;40.732;-74.254;2023-04-25T06:22:38;100971.19;;;23.49;30.05
56630;BME280;42502;40.732;-74.254;2023-04-25T06:24:42;100962.66;;;23.45;30.13
56630;BME280;42502;40.732;-74.254;2023-04-25T06:26:43;100958.56;;;23.42;30.15
56630;BME280;42502;40.732;-74.254;2023-04-25T06:28:44;100960.63;;;23.46;29.89
56630;BME280;42502;40.732;-74.254;2023-04-25T06:30:44;100954.13;;;23.41;30.22
56630;BME280;42502;40.732;-74.254;2023-04-25T06:32:45;100957.38;;;23.44;30.07
56630;BME280;42502;40.732;-74.254;2023-04-25T06:34:46;100959.75;;;23.41;30.04
56630;BME280;42502;40.732;-74.254;2023-04-25T06:36:47;100956.09;;;23.41;29.94
56630;BME280;42502;40.732;-74.254;2023-04-25T06:38:51;100947.66;;;23.41;29.97
56630;BME280;42502;40.732;-74.254;2023-04-25T06:40:52;100956.47;;;23.39;29.92
56630;BME280;42502;40.732;-74.254;2023-04-25T06:42:53;100960.50;;;23.38;29.92
56630;BME280;42502;40.732;-74.254;2023-04-25T06:44:54;100949.59;;;23.37;30.00
56630;BME280;42502;40.732;-74.254;2023-04-25T06:46:56;100956.03;;;23.37;29.88
56630;BME280;42502;40.732;-74.254;2023-04-25T06:48:56;100962.03;;;23.36;29.79
56630;BME280;42502;40.732;-74.254;2023-04-25T06:50:57;100969.69;;;23.35;29.83
56630;BME280;42502;40.732;-74.254;2023-04-25T06:52:58;100959.16;;;23.32;29.97
56630;BME280;42502;40.732;-74.254;2023-04-25T06:54:59;100964.41;;;23.34;30.04
56630;BME280;42502;40.732;-74.254;2023-04-25T06:57:00;100963.13;;;23.31;29.95
56630;BME280;42502;40.732;-74.254;2023-04-25T06:59:01;100960.31;;;23.31;29.85
56630;BME280;42502;40.732;-74.254;2023-04-25T07:01:02;100961.06;;;23.28;29.92
56630;BME280;42502;40.732;-74.254;2023-04-25T07:03:06;100961.06;;;23.28;30.04
56630;BME280;42502;40.732;-74.254;2023-04-25T07:05:07;100964.25;;;23.27;30.04
56630;BME280;42502;40.732;-74.254;2023-04-25T07:07:11;100971.53;;;23.28;29.82
56630;BME280;42502;40.732;-74.254;2023-04-25T07:09:12;100970.69;;;23.27;29.85
56630;BME280;42502;40.732;-74.254;2023-04-25T07:11:13;100966.25;;;23.26;30.05
56630;BME280;42502;40.732;-74.254;2023-04-25T07:13:14;100960.50;;;23.22;29.85
56630;BME280;42502;40.732;-74.254;2023-04-25T07:15:15;100964.97;;;23.23;30.05
56630;BME280;42502;40.732;-74.254;2023-04-25T07:17:15;100972.59;;;23.23;29.90
56630;BME280;42502;40.732;-74.254;2023-04-25T07:19:19;100972.97;;;23.21;29.81
56630;BME280;42502;40.732;-74.254;2023-04-25T07:21:20;100974.16;;;23.20;30.06
56630;BME280;42502;40.732;-74.254;2023-04-25T07:23:21;100970.78;;;23.15;29.95
56630;BME280;42502;40.732;-74.254;2023-04-25T07:25:25;100976.78;;;23.13;29.89
56630;BME280;42502;40.732;-74.254;2023-04-25T07:27:25;100984.97;;;23.18;29.76
56630;BME280;42502;40.732;-74.254;2023-04-25T07:29:27;100977.97;;;23.12;29.99
56630;BME280;42502;40.732;-74.254;2023-04-25T07:31:28;100982.50;;;23.17;29.89
56630;BME280;42502;40.732;-74.254;2023-04-25T07:33:29;100986.91;;;23.14;29.88
56630;BME280;42502;40.732;-74.254;2023-04-25T07:35:30;100984.06;;;23.14;29.93
56630;BME280;42502;40.732;-74.254;2023-04-25T07:37:31;100981.16;;;23.11;29.84
56630;BME280;42502;40.732;-74.254;2023-04-25T07:39:35;100986.44;;;23.12;30.02
56630;BME280;42502;40.732;-74.254;2023-04-25T07:41:37;100991.63;;;23.10;29.95
56630;BME280;42502;40.732;-74.254;2023-04-25T07:43:38;100994.44;;;23.10;29.93
56630;BME280;42502;40.732;-74.254;2023-04-25T07:45:39;100995.13;;;23.07;30.06
56630;BME280;42502;40.732;-74.254;2023-04-25T07:47:39;101003.22;;;23.09;29.80
56630;BME280;42502;40.732;-74.254;2023-04-25T07:49:40;100987.84;;;23.06;29.93
56630;BME280;42502;40.732;-74.254;2023-04-25T07:51:41;100993.50;;;23.06;30.08
56630;BME280;42502;40.732;-74.254;2023-04-25T07:53:43;100979.13;;;22.95;29.77
56630;BME280;42502;40.732;-74.254;2023-04-25T07:55:44;100992.59;;;23.02;29.77
56630;BME280;42502;40.732;-74.254;2023-04-25T07:57:45;100993.41;;;23.02;29.95
56630;BME280;42502;40.732;-74.254;2023-04-25T07:59:46;100993.31;;;22.99;30.07
56630;BME280;42502;40.732;-74.254;2023-04-25T08:01:47;100997.41;;;23.01;29.72
56630;BME280;42502;40.732;-74.254;2023-04-25T08:03:48;100992.97;;;23.00;29.88
56630;BME280;42502;40.732;-74.254;2023-04-25T08:05:49;101000.56;;;23.00;29.81
56630;BME280;42502;40.732;-74.254;2023-04-25T08:07:50;100992.50;;;22.98;29.77
56630;BME280;42502;40.732;-74.254;2023-04-25T08:09:51;101004.13;;;22.97;29.55
56630;BME280;42502;40.732;-74.254;2023-04-25T08:11:51;100994.88;;;22.96;29.79
56630;BME280;42502;40.732;-74.254;2023-04-25T08:13:52;100994.06;;;22.96;29.98
56630;BME280;42502;40.732;-74.254;2023-04-25T08:15:53;101000.84;;;22.95;29.70
56630;BME280;42502;40.732;-74.254;2023-04-25T08:17:55;101002.41;;;22.92;29.78
56630;BME280;42502;40.732;-74.254;2023-04-25T08:19:55;100992.78;;;22.93;29.89
56630;BME280;42502;40.732;-74.254;2023-04-25T08:21:57;100999.56;;;22.92;29.71
56630;BME280;42502;40.732;-74.254;2023-04-25T08:23:58;100998.28;;;22.89;29.80
56630;BME280;42502;40.732;-74.254;2023-04-25T08:25:59;101002.31;;;22.88;29.85
56630;BME280;42502;40.732;-74.254;2023-04-25T08:27:59;101003.13;;;22.89;29.80
56630;BME280;42502;40.732;-74.254;2023-04-25T08:30:03;101002.19;;;22.85;29.92
56630;BME280;42502;40.732;-74.254;2023-04-25T08:32:04;100998.56;;;22.84;29.80
56630;BME280;42502;40.732;-74.254;2023-04-25T08:34:05;100999.38;;;22.85;29.73
56630;BME280;42502;40.732;-74.254;2023-04-25T08:36:06;101007.84;;;22.85;29.78
56630;BME280;42502;40.732;-74.254;2023-04-25T08:38:10;101006.22;;;22.84;29.82
56630;BME280;42502;40.732;-74.254;2023-04-25T08:40:12;100999.22;;;22.78;29.90
56630;BME280;42502;40.732;-74.254;2023-04-25T08:42:15;101014.19;;;22.82;29.81
56630;BME280;42502;40.732;-74.254;2023-04-25T08:44:16;101014.19;;;22.82;29.71
56630;BME280;42502;40.732;-74.254;2023-04-25T08:46:18;101008.91;;;22.80;29.77
56630;BME280;42502;40.732;-74.254;2023-04-25T08:48:19;101004.75;;;22.74;29.70
56630;BME280;42502;40.732;-74.254;2023-04-25T08:50:22;101006.81;;;22.77;29.67
56630;BME280;42502;40.732;-74.254;2023-04-25T08:52:23;101014.47;;;22.77;29.90
56630;BME280;42502;40.732;-74.254;2023-04-25T08:54:28;101009.19;;;22.75;29.76
56630;BME280;42502;40.732;-74.254;2023-04-25T08:56:32;101005.47;;;22.71;29.57
56630;BME280;42502;40.732;-74.254;2023-04-25T08:58:35;101015.19;;;22.74;29.72
56630;BME280;42502;40.732;-74.254;2023-04-25T09:00:37;101008.75;;;22.73;29.78
56630;BME280;42502;40.732;-74.254;2023-04-25T09:02:39;101007.09;;;22.72;29.86
56630;BME280;42502;40.732;-74.254;2023-04-25T09:04:42;101008.28;;;22.71;29.79
56630;BME280;42502;40.732;-74.254;2023-04-25T09:06:43;100997.75;;;22.68;29.79
56630;BME280;42502;40.732;-74.254;2023-04-25T09:08:44;101013.47;;;22.69;29.68
56630;BME280;42502;40.732;-74.254;2023-04-25T09:10:45;101003.38;;;22.68;29.73
56630;BME280;42502;40.732;-74.254;2023-04-25T09:13:02;100998.72;;;22.60;29.89
56630;BME280;42502;40.732;-74.254;2023-04-25T09:15:09;101008.56;;;22.66;29.85
56630;BME280;42502;40.732;-74.254;2023-04-25T09:17:10;101013.00;;;22.67;29.79
56630;BME280;42502;40.732;-74.254;2023-04-25T09:19:21;101005.19;;;22.60;29.85
56630;BME280;42502;40.732;-74.254;2023-04-25T09:21:22;101011.72;;;22.64;29.65
56630;BME280;42502;40.732;-74.254;2023-04-25T09:23:24;101010.00;;;22.60;29.53
56630;BME280;42502;40.732;-74.254;2023-04-25T09:25:24;101011.25;;;22.62;29.74
56630;BME280;42502;40.732;-74.254;2023-04-25T09:27:25;101014.44;;;22.61;29.71
56630;BME280;42502;40.732;-74.254;2023-04-25T09:29:34;101017.59;;;22.59;29.76
56630;BME280;42502;40.732;-74.254;2023-04-25T09:31:35;101024.44;;;22.58;29.70
56630;BME280;42502;40.732;-74.254;2023-04-25T09:33:40;101013.91;;;22.55;29.82
56630;BME280;42502;40.732;-74.254;2023-04-25T09:35:43;101016.34;;;22.57;29.68
56630;BME280;42502;40.732;-74.254;2023-04-25T09:37:45;101017.53;;;22.56;29.69
56630;BME280;42502;40.732;-74.254;2023-04-25T09:39:57;101004.78;;;22.46;29.81
56630;BME280;42502;40.732;-74.254;2023-04-25T09:41:59;101017.88;;;22.54;29.62
56630;BME280;42502;40.732;-74.254;2023-04-25T09:44:00;101015.34;;;22.49;29.60
56630;BME280;42502;40.732;-74.254;2023-04-25T09:46:01;101013.69;;;22.48;29.66
56630;BME280;42502;40.732;-74.254;2023-04-25T09:48:05;101026.59;;;22.49;29.63
56630;BME280;42502;40.732;-74.254;2023-04-25T09:50:17;101024.13;;;22.47;29.83
56630;BME280;42502;40.732;-74.254;2023-04-25T09:52:24;101022.84;;;22.45;29.66
56630;BME280;42502;40.732;-74.254;2023-04-25T09:54:25;101035.41;;;22.47;29.53
56630;BME280;42502;40.732;-74.254;2023-04-25T09:56:30;101036.56;;;22.46;29.67
56630;BME280;42502;40.732;-74.254;2023-04-25T09:58:39;101034.47;;;22.43;29.68
56630;BME280;42502;40.732;-74.254;2023-04-25T10:00:41;101035.28;;;22.44;29.53
56630;BME280;42502;40.732;-74.254;2023-04-25T10:02:42;101042.09;;;22.43;29.63
56630;BME280;42502;40.732;-74.254;2023-04-25T10:04:52;101043.28;;;22.42;29.72
56630;BME280;42502;40.732;-74.254;2023-04-25T10:06:56;101040.81;;;22.40;29.64
56630;BME280;42502;40.732;-74.254;2023-04-25T10:08:57;101046.44;;;22.40;29.83
56630;BME280;42502;40.732;-74.254;2023-04-25T10:11:06;101051.63;;;22.38;29.82
56630;BME280;42502;40.732;-74.254;2023-04-25T10:13:07;101054.81;;;22.37;29.71
56630;BME280;42502;40.732;-74.254;2023-04-25T10:15:09;101054.69;;;22.33;29.50
56630;BME280;42502;40.732;-74.254;2023-04-25T10:17:14;101051.16;;;22.36;29.66
56630;BME280;42502;40.732;-74.254;2023-04-25T10:19:16;101054.69;;;22.33;29.58